Time;durP1;ratioP1;P1;durP2;ratioP2;P2;SDS_P1;SDS_P2;PMS_P1;PMS_P2;Temp;Humidity;BMP_temperature;BMP_pressure;BME280_temperature;BME280_humidity;BME280_pressure;Samples;Min_cycle;Max_cycle;Signal;HPM_P1;HPM_P2
2021/12/08 00:00:59;;;;;;;49.05;24.95;;;;;;;1.00;66.05;98645.06;4369971;32;33960;-88
2021/12/08 00:03:29;;;;;;;53.97;25.83;;;;;;;0.88;67.23;98646.31;4354345;32;33958;-89
2021/12/08 00:05:58;;;;;;;57.10;26.15;;;;;;;1.12;67.12;98643.03;4375510;32;33511;-90
2021/12/08 00:08:28;;;;;;;60.40;27.15;;;;;;;0.98;67.68;98645.00;4336249;32;34853;-82
2021/12/08 00:13:34;;;;;;;54.10;26.50;;;;;;;1.05;67.60;98646.13;4359697;32;33887;-86
2021/12/08 00:16:06;;;;;;;55.30;25.67;;;;;;;0.84;67.85;98648.66;4367673;32;34068;-89
2021/12/08 00:18:35;;;;;;;54.45;27.33;;;;;;;1.25;67.03;98642.75;4355696;32;33965;-89
2021/12/08 00:21:07;;;;;;;52.62;26.45;;;;;;;0.89;67.79;98642.94;4360042;32;33644;-89
2021/12/08 00:23:34;;;;;;;53.47;25.62;;;;;;;1.21;66.82;98645.94;4362882;32;34109;-89
2021/12/08 00:26:03;;;;;;;56.42;25.50;;;;;;;1.44;65.94;98637.56;4366045;32;33360;-89
2021/12/08 00:28:31;;;;;;;54.90;25.65;;;;;;;1.57;64.28;98651.69;4369005;32;33983;-85
2021/12/08 00:31:01;;;;;;;55.40;26.17;;;;;;;1.46;64.73;98651.25;4364308;32;35055;-87
2021/12/08 00:33:30;;;;;;;47.42;25.70;;;;;;;1.32;64.59;98660.03;4366954;32;33799;-89
2021/12/08 00:36:00;;;;;;;46.42;24.42;;;;;;;1.44;64.83;98659.69;4356603;32;34342;-88
2021/12/08 00:38:29;;;;;;;52.42;27.05;;;;;;;0.86;67.37;98667.44;4371474;32;34348;-90
2021/12/08 00:40:57;;;;;;;57.47;25.20;;;;;;;1.07;66.97;98664.94;4361697;32;34008;-90
2021/12/08 00:43:24;;;;;;;58.22;26.75;;;;;;;1.34;66.19;98657.56;4354219;32;33110;-87
2021/12/08 00:45:52;;;;;;;54.50;27.00;;;;;;;1.20;66.39;98664.63;4368525;32;33140;-87
2021/12/08 00:48:20;;;;;;;53.87;25.88;;;;;;;1.05;66.84;98666.53;4361893;32;33541;-90
2021/12/08 00:50:48;;;;;;;57.30;24.63;;;;;;;0.68;67.72;98678.62;4357517;32;35090;-89
2021/12/08 00:53:16;;;;;;;56.15;27.02;;;;;;;0.60;68.94;98677.38;4366350;32;34045;-89
2021/12/08 00:55:43;;;;;;;57.90;26.75;;;;;;;0.19;69.56;98685.72;4351835;32;32724;-86
2021/12/08 00:58:12;;;;;;;52.70;25.75;;;;;;;1.00;67.69;98680.81;4351782;32;33153;-85
2021/12/08 01:00:47;;;;;;;53.45;26.23;;;;;;;0.78;68.20;98674.78;4356952;32;32719;-89
2021/12/08 01:03:16;;;;;;;52.57;27.33;;;;;;;0.49;69.24;98686.25;4350743;32;32721;-88
2021/12/08 01:05:47;;;;;;;55.58;25.73;;;;;;;0.71;68.47;98677.88;4374541;32;32859;-86
2021/12/08 01:08:16;;;;;;;61.70;27.90;;;;;;;0.46;69.02;98679.34;4362613;32;34565;-87
2021/12/08 01:10:46;;;;;;;57.88;27.23;;;;;;;0.62;68.94;98677.47;4360652;32;35060;-89
2021/12/08 01:13:14;;;;;;;58.10;25.60;;;;;;;0.57;69.24;98677.28;4350651;32;34860;-88
2021/12/08 01:15:45;;;;;;;54.97;26.70;;;;;;;0.88;67.96;98679.47;4362958;32;33320;-87
2021/12/08 01:18:14;;;;;;;56.28;27.33;;;;;;;0.21;69.92;98679.03;4359816;32;33616;-85
2021/12/08 01:20:41;;;;;;;54.63;25.98;;;;;;;1.00;67.90;98662.94;4348846;32;33995;-88
2021/12/08 01:23:11;;;;;;;45.25;23.67;;;;;;;1.13;66.63;98660.94;4348170;32;34104;-88
2021/12/08 01:25:39;;;;;;;47.72;24.17;;;;;;;1.40;65.05;98651.03;4354407;32;33653;-89
2021/12/08 01:28:07;;;;;;;47.50;25.37;;;;;;;1.60;63.88;98641.59;4349138;32;34836;-88
2021/12/08 01:30:35;;;;;;;51.45;23.75;;;;;;;1.69;62.72;98641.06;4361095;32;35669;-88
2021/12/08 01:33:03;;;;;;;46.97;23.75;;;;;;;1.65;62.29;98640.06;4368213;32;35440;-89
2021/12/08 01:35:31;;;;;;;50.40;26.33;;;;;;;1.31;63.16;98637.84;4372010;32;33623;-88
2021/12/08 01:37:58;;;;;;;49.67;26.12;;;;;;;1.27;63.25;98628.34;4358486;32;33945;-87
2021/12/08 01:40:26;;;;;;;52.08;25.98;;;;;;;1.45;62.99;98623.09;4364461;32;35178;-86
2021/12/08 01:42:57;;;;;;;54.47;26.23;;;;;;;0.82;66.08;98625.62;4355486;32;34053;-88
2021/12/08 01:48:15;;;;;;;52.75;26.23;;;;;;;1.07;65.75;98616.44;4349852;32;33548;-88
2021/12/08 01:50:46;;;;;;;50.67;25.80;;;;;;;1.08;66.38;98613.06;4350355;32;34060;-87
2021/12/08 01:53:15;;;;;;;50.55;26.23;;;;;;;1.19;65.72;98611.84;4355477;32;34760;-89
2021/12/08 01:55:42;;;;;;;53.55;26.95;;;;;;;1.15;65.97;98610.84;4364954;32;34248;-86
2021/12/08 01:58:10;;;;;;;47.15;24.35;;;;;;;1.26;64.49;98601.06;4367581;32;34017;-87
2021/12/08 02:00:45;;;;;;;51.00;25.35;;;;;;;1.48;63.33;98604.44;4372812;32;34341;-90
2021/12/08 02:03:12;;;;;;;50.25;23.60;;;;;;;1.40;62.51;98599.94;4368542;32;35105;-85
2021/12/08 02:05:40;;;;;;;48.70;23.45;;;;;;;1.58;61.82;98601.44;4347023;32;34543;-86
2021/12/08 02:08:08;;;;;;;52.47;28.00;;;;;;;1.54;61.79;98602.16;4358152;32;34477;-90
2021/12/08 02:10:37;;;;;;;50.08;26.80;;;;;;;1.37;61.49;98602.38;4363738;32;34327;-89
2021/12/08 02:13:05;;;;;;;48.67;24.05;;;;;;;1.40;61.46;98596.47;4356095;32;34796;-90
2021/12/08 02:15:34;;;;;;;45.25;23.62;;;;;;;1.53;61.26;98590.19;4372827;32;33959;-88
2021/12/08 02:18:02;;;;;;;46.63;22.98;;;;;;;1.61;60.68;98578.59;4350123;32;34929;-88
2021/12/08 02:20:31;;;;;;;43.90;22.50;;;;;;;1.50;60.63;98567.94;4355181;32;34787;-86
2021/12/08 02:23:00;;;;;;;51.22;24.27;;;;;;;1.29;61.28;98573.09;4374943;32;34892;-88
2021/12/08 02:25:27;;;;;;;50.92;23.67;;;;;;;1.45;61.03;98570.34;4367678;32;33985;-90
2021/12/08 02:27:58;;;;;;;47.80;24.40;;;;;;;1.40;61.01;98566.75;4352964;32;33887;-89
2021/12/08 02:30:35;;;;;;;42.78;23.65;;;;;;;1.42;60.97;98580.41;4347536;32;34858;-90
2021/12/08 02:49:28;;;;;;;50.97;23.92;;;;;;;1.27;61.02;98592.59;4352535;32;33843;-90
2021/12/08 02:51:56;;;;;;;43.90;22.90;;;;;;;1.36;60.46;98592.94;4360814;32;33837;-89
2021/12/08 02:54:23;;;;;;;45.75;21.25;;;;;;;1.27;60.24;98601.94;4360775;32;34457;-89
2021/12/08 02:56:54;;;;;;;45.53;22.08;;;;;;;1.33;60.08;98604.75;4362428;32;33835;-86
2021/12/08 02:59:22;;;;;;;47.67;23.50;;;;;;;1.30;60.15;98617.38;4371309;32;33804;-87
2021/12/08 03:01:50;;;;;;;43.22;22.13;;;;;;;1.30;60.00;98610.59;4364106;32;34934;-87
2021/12/08 03:04:18;;;;;;;44.22;22.23;;;;;;;1.19;59.85;98611.84;4359539;32;33656;-89
2021/12/08 03:06:45;;;;;;;48.15;24.02;;;;;;;1.10;60.06;98614.00;4365806;32;33661;-90
2021/12/08 03:09:13;;;;;;;47.35;24.12;;;;;;;0.70;60.87;98607.25;4358561;32;32956;-87
2021/12/08 03:11:41;;;;;;;47.78;22.48;;;;;;;0.96;60.60;98604.09;4353225;32;34580;-89
2021/12/08 03:14:13;;;;;;;49.78;24.35;;;;;;;0.91;60.39;98609.81;4359572;32;33743;-90
2021/12/08 03:16:44;;;;;;;50.28;23.90;;;;;;;1.06;60.32;98604.47;4360107;32;34470;-88
2021/12/08 03:19:12;;;;;;;50.60;23.12;;;;;;;0.83;60.87;98613.72;4360583;32;33444;-89
2021/12/08 03:21:39;;;;;;;46.20;24.15;;;;;;;0.52;61.53;98620.06;4346187;32;34012;-88
2021/12/08 03:27:07;;;;;;;52.22;23.73;;;;;;;0.60;60.83;98612.75;4372304;32;33537;-89
2021/12/08 03:32:10;;;;;;;44.92;22.23;;;;;;;0.82;60.65;98600.09;4354918;32;34638;-88
2021/12/08 03:34:41;;;;;;;43.47;21.80;;;;;;;0.69;61.07;98602.97;4371760;32;33794;-90
2021/12/08 03:37:10;;;;;;;45.70;22.35;;;;;;;0.87;60.72;98600.28;4371707;32;34152;-90
2021/12/08 03:39:41;;;;;;;45.40;23.55;;;;;;;0.96;60.37;98588.78;4361180;32;34002;-85
2021/12/08 03:42:10;;;;;;;42.33;22.27;;;;;;;0.94;59.92;98589.53;4353333;32;34163;-88
2021/12/08 03:44:38;;;;;;;48.60;21.33;;;;;;;1.02;59.56;98587.28;4364710;32;34227;-88
2021/12/08 03:47:14;;;;;;;44.70;23.35;;;;;;;0.91;59.88;98597.94;4361700;32;33893;-89
2021/12/08 03:49:44;;;;;;;48.28;23.73;;;;;;;0.88;59.99;98592.72;4349575;32;33148;-90
2021/12/08 03:52:12;;;;;;;52.65;22.65;;;;;;;0.96;60.04;98588.78;4357449;32;33944;-86
2021/12/08 03:54:39;;;;;;;40.10;22.35;;;;;;;0.92;60.30;98580.94;4357913;32;33583;-92
2021/12/08 03:57:07;;;;;;;48.15;23.52;;;;;;;0.80;60.44;98586.44;4368354;32;33309;-89
2021/12/08 03:59:34;;;;;;;44.35;23.10;;;;;;;0.93;60.17;98587.78;4373840;32;34804;-87
2021/12/08 04:02:03;;;;;;;43.87;22.80;;;;;;;0.77;60.21;98587.97;4371310;32;33962;-87
2021/12/08 04:04:40;;;;;;;48.63;22.37;;;;;;;0.82;60.23;98584.78;4361124;32;35138;-91
2021/12/08 04:07:08;;;;;;;42.80;21.75;;;;;;;0.75;60.82;98587.88;4358929;32;33349;-91
2021/12/08 04:09:41;;;;;;;48.70;22.58;;;;;;;0.84;61.24;98597.63;4355179;32;34265;-92
2021/12/08 04:12:09;;;;;;;52.67;24.50;;;;;;;0.75;61.59;98602.31;4361404;32;33769;-89
2021/12/08 04:14:41;;;;;;;49.33;24.20;;;;;;;0.81;61.84;98600.91;4347915;32;33755;-89
2021/12/08 04:17:26;;;;;;;49.47;23.73;;;;;;;0.80;62.63;98601.72;4361431;32;33512;-89
2021/12/08 04:19:57;;;;;;;46.65;23.65;;;;;;;0.93;62.31;98598.87;4360901;32;34273;-92
2021/12/08 04:22:29;;;;;;;49.03;23.45;;;;;;;0.95;60.64;98606.59;4348819;32;35013;-91
2021/12/08 04:24:58;;;;;;;44.75;22.60;;;;;;;0.87;61.05;98600.28;4363668;32;33742;-92
2021/12/08 04:27:29;;;;;;;48.35;23.70;;;;;;;0.93;60.82;98603.97;4367621;32;34977;-91
2021/12/08 04:29:57;;;;;;;43.35;22.05;;;;;;;0.86;60.93;98590.91;4375868;32;34010;-87
2021/12/08 04:32:28;;;;;;;45.45;22.33;;;;;;;1.09;60.00;98581.63;4375878;32;34239;-88
2021/12/08 04:34:59;;;;;;;45.25;22.45;;;;;;;0.86;60.47;98581.56;4351540;32;34658;-83
2021/12/08 04:37:31;;;;;;;45.17;22.90;;;;;;;0.70;60.76;98590.25;4371114;32;33566;-89
2021/12/08 04:40:20;;;;;;;44.65;21.60;;;;;;;0.65;61.23;98593.44;4348810;32;33716;-89
2021/12/08 04:45:36;;;;;;;49.58;21.30;;;;;;;0.85;60.21;98595.12;4360792;32;33699;-88
2021/12/08 05:02:19;;;;;;;43.22;21.37;;;;;;;0.72;60.13;98603.97;4361196;32;34762;-91
2021/12/08 05:07:57;;;;;;;40.50;21.17;;;;;;;0.93;59.85;98601.41;4354200;32;33420;-87
2021/12/08 05:10:33;;;;;;;37.30;20.55;;;;;;;0.76;59.86;98594.75;4367809;32;33658;-87
2021/12/08 05:13:03;;;;;;;47.40;23.23;;;;;;;0.71;60.13;98581.78;4347207;32;33867;-92
2021/12/08 05:15:41;;;;;;;46.70;21.95;;;;;;;0.71;59.92;98599.66;4371239;32;35067;-86
2021/12/08 05:18:10;;;;;;;46.65;23.80;;;;;;;0.49;60.85;98622.47;4357361;32;34373;-90
2021/12/08 05:20:43;;;;;;;44.72;23.38;;;;;;;0.45;61.22;98608.72;4349869;32;33425;-90
2021/12/08 05:23:16;;;;;;;48.83;22.87;;;;;;;0.00;62.00;98607.59;4355300;32;33530;-89
2021/12/08 05:25:44;;;;;;;46.83;23.02;;;;;;;0.55;60.98;98610.00;4349041;32;33430;-90
2021/12/08 05:28:15;;;;;;;48.47;23.30;;;;;;;0.54;60.64;98602.31;4365111;32;34337;-89
2021/12/08 05:30:51;;;;;;;43.17;21.45;;;;;;;0.54;60.88;98597.19;4347426;32;34355;-90
2021/12/08 05:33:19;;;;;;;38.95;19.60;;;;;;;0.25;61.55;98594.25;4349429;32;34907;-91
2021/12/08 05:35:46;;;;;;;41.05;19.95;;;;;;;0.41;61.28;98595.78;4367951;32;34136;-90
2021/12/08 05:38:16;;;;;;;36.33;17.67;;;;;;;0.55;60.77;98589.59;4359867;32;34005;-91
2021/12/08 05:40:49;;;;;;;43.42;23.70;;;;;;;0.60;60.32;98584.69;4372806;32;33608;-88
2021/12/08 05:43:16;;;;;;;40.78;22.60;;;;;;;0.60;59.77;98571.94;4374279;32;34553;-91
2021/12/08 05:45:45;;;;;;;35.60;20.10;;;;;;;0.31;60.67;98579.22;4371835;32;35278;-89
2021/12/08 05:48:13;;;;;;;33.03;17.20;;;;;;;0.28;61.23;98583.31;4362494;32;34007;-88
2021/12/08 05:50:50;;;;;;;30.37;16.85;;;;;;;0.41;60.69;98596.66;4357208;32;32195;-91
2021/12/08 05:53:17;;;;;;;33.25;16.92;;;;;;;0.45;60.82;98598.53;4369666;32;34291;-87
2021/12/08 05:55:45;;;;;;;29.67;16.25;;;;;;;0.45;61.33;98598.53;4363575;32;34617;-85
2021/12/08 05:58:14;;;;;;;27.33;15.48;;;;;;;0.70;60.46;98595.34;4367564;32;33612;-85
2021/12/08 06:00:45;;;;;;;28.60;15.95;;;;;;;0.60;60.04;98597.44;4360773;32;34515;-85
2021/12/08 06:03:16;;;;;;;31.80;16.02;;;;;;;0.55;60.15;98593.84;4360490;32;34600;-85
2021/12/08 06:05:47;;;;;;;29.77;15.95;;;;;;;0.67;60.06;98589.25;4334888;32;33417;-86
2021/12/08 06:08:16;;;;;;;32.33;16.48;;;;;;;0.68;59.78;98597.00;4361023;32;34731;-91
2021/12/08 06:10:43;;;;;;;32.45;16.52;;;;;;;0.55;59.79;98604.03;4361054;32;34144;-85
2021/12/08 06:13:12;;;;;;;33.95;18.58;;;;;;;0.69;59.66;98598.72;4375394;32;34321;-85
2021/12/08 06:15:42;;;;;;;33.88;16.55;;;;;;;0.72;59.39;98603.09;4361850;32;33723;-84
2021/12/08 06:18:10;;;;;;;33.72;18.10;;;;;;;0.73;58.88;98603.16;4361350;32;33750;-85
2021/12/08 06:20:38;;;;;;;35.17;17.17;;;;;;;0.79;58.64;98599.97;4366637;32;34628;-85
2021/12/08 06:23:08;;;;;;;37.30;19.25;;;;;;;0.60;58.97;98600.00;4360589;32;33568;-85
2021/12/08 06:25:37;;;;;;;33.17;16.83;;;;;;;0.48;59.99;98603.75;4346724;32;33742;-85
2021/12/08 06:28:07;;;;;;;34.10;17.85;;;;;;;0.61;60.21;98592.44;4346806;32;33939;-85
2021/12/08 06:30:37;;;;;;;35.05;17.25;;;;;;;0.63;60.36;98600.13;4360095;32;33616;-85
2021/12/08 06:33:08;;;;;;;32.25;17.67;;;;;;;0.52;60.59;98612.41;4364478;32;33438;-85
2021/12/08 06:35:45;;;;;;;35.13;17.55;;;;;;;0.74;59.98;98609.13;4361755;32;33856;-85
2021/12/08 06:38:14;;;;;;;40.58;19.20;;;;;;;0.62;59.81;98613.69;4376518;32;33566;-91
2021/12/08 06:41:02;;;;;;;38.03;19.65;;;;;;;0.61;60.32;98614.53;4356253;32;33576;-91
2021/12/08 06:43:38;;;;;;;38.13;19.52;;;;;;;0.67;60.25;98602.88;4360134;32;34096;-91
2021/12/08 06:46:06;;;;;;;36.35;18.55;;;;;;;0.78;59.90;98607.56;4360528;32;34054;-90
2021/12/08 06:48:43;;;;;;;39.47;20.20;;;;;;;0.81;59.73;98603.47;4360161;32;34208;-91
2021/12/08 06:51:25;;;;;;;38.90;20.17;;;;;;;0.77;59.75;98601.59;4360795;32;33546;-91
2021/12/08 06:54:01;;;;;;;36.35;17.95;;;;;;;0.81;59.38;98600.91;4346673;32;34578;-87
2021/12/08 06:56:32;;;;;;;41.08;19.85;;;;;;;0.77;59.10;98599.03;4361228;32;35181;-91
2021/12/08 06:59:07;;;;;;;43.55;21.15;;;;;;;0.85;58.93;98599.37;4361369;32;34272;-91
2021/12/08 07:01:49;;;;;;;41.33;21.37;;;;;;;0.68;59.50;98607.19;4377457;32;33647;-86
2021/12/08 07:07:03;;;;;;;38.10;19.73;;;;;;;0.77;59.64;98599.03;4366690;32;34095;-90
2021/12/08 07:09:45;;;;;;;45.22;21.02;;;;;;;0.79;59.68;98588.88;4366086;32;33873;-86
2021/12/08 07:12:14;;;;;;;42.17;20.88;;;;;;;0.79;59.75;98592.31;4379818;32;33555;-89
2021/12/08 07:14:45;;;;;;;50.63;24.23;;;;;;;0.82;59.76;98591.56;4379199;32;33618;-87
2021/12/08 07:17:19;;;;;;;48.28;22.67;;;;;;;0.91;59.66;98592.84;4374049;32;34863;-92
2021/12/08 07:19:52;;;;;;;48.55;23.08;;;;;;;0.91;59.66;98597.94;4358493;32;33524;-87
2021/12/08 07:22:24;;;;;;;47.35;22.75;;;;;;;0.71;60.34;98591.13;4362830;32;33662;-90
2021/12/08 07:24:54;;;;;;;41.13;21.50;;;;;;;0.66;60.98;98597.72;4361508;32;34772;-86
2021/12/08 07:27:26;;;;;;;49.97;24.23;;;;;;;0.71;61.12;98592.00;4360929;32;34928;-87
2021/12/08 07:29:56;;;;;;;40.88;21.10;;;;;;;0.61;61.57;98594.97;4369568;32;33725;-89
2021/12/08 07:32:28;;;;;;;40.78;23.15;;;;;;;0.91;60.93;98594.50;4363941;32;34294;-89
2021/12/08 07:34:58;;;;;;;39.15;22.60;;;;;;;0.78;61.33;98598.22;4369563;32;34013;-90
2021/12/08 07:37:31;;;;;;;47.47;23.33;;;;;;;0.65;62.27;98601.94;4378999;32;34154;-89
2021/12/08 07:40:06;;;;;;;39.72;21.05;;;;;;;0.90;61.63;98598.72;4378805;32;33597;-90
2021/12/08 07:42:39;;;;;;;41.85;20.80;;;;;;;1.04;61.24;98593.34;4378918;32;33339;-91
2021/12/08 07:45:10;;;;;;;41.40;22.08;;;;;;;1.10;60.93;98603.78;4378784;32;34738;-85
2021/12/08 07:47:39;;;;;;;46.30;22.58;;;;;;;1.03;61.50;98609.47;4355943;32;34187;-88
2021/12/08 07:50:21;;;;;;;45.58;21.92;;;;;;;1.07;61.61;98606.22;4363948;32;34866;-92
2021/12/08 07:52:51;;;;;;;47.13;24.95;;;;;;;1.13;61.54;98606.47;4354188;32;33836;-90
2021/12/08 07:55:23;;;;;;;41.05;21.48;;;;;;;0.97;62.14;98616.03;4365971;32;33297;-87
2021/12/08 07:57:51;;;;;;;46.25;23.40;;;;;;;1.19;61.75;98617.81;4364994;32;34589;-89
2021/12/08 08:00:21;;;;;;;49.08;24.05;;;;;;;1.26;61.68;98616.38;4364261;32;33813;-90
2021/12/08 08:02:49;;;;;;;45.30;23.67;;;;;;;1.32;61.43;98608.94;4379532;32;33432;-89
2021/12/08 08:05:19;;;;;;;51.33;26.60;;;;;;;1.19;61.84;98611.84;4365690;32;32690;-86
2021/12/08 08:07:48;;;;;;;48.42;25.58;;;;;;;1.30;61.87;98608.03;4379439;32;33867;-86
2021/12/08 08:10:16;;;;;;;50.30;25.00;;;;;;;1.37;61.97;98617.69;4379728;32;34076;-88
2021/12/08 08:12:46;;;;;;;49.97;27.52;;;;;;;1.25;62.53;98618.84;4378345;32;33647;-90
2021/12/08 08:15:21;;;;;;;52.53;27.08;;;;;;;1.33;62.81;98613.28;4362797;32;34779;-88
2021/12/08 08:17:52;;;;;;;49.80;26.20;;;;;;;1.22;63.61;98614.53;4362805;32;32385;-90
2021/12/08 08:20:30;;;;;;;50.88;26.48;;;;;;;1.32;63.47;98621.72;4376545;32;33522;-86
2021/12/08 08:22:59;;;;;;;51.03;26.42;;;;;;;1.50;63.01;98628.37;4362837;32;33411;-90
2021/12/08 08:25:34;;;;;;;48.75;27.40;;;;;;;1.59;62.85;98624.53;4376186;32;34689;-90
2021/12/08 08:28:04;;;;;;;51.53;26.60;;;;;;;1.50;63.37;98618.16;4376244;32;33766;-87
2021/12/08 08:30:37;;;;;;;48.95;25.75;;;;;;;1.59;62.98;98618.50;4362391;32;34165;-86
2021/12/08 08:33:06;;;;;;;48.35;27.13;;;;;;;1.55;63.41;98629.44;4376137;32;33929;-86
2021/12/08 08:35:37;;;;;;;53.30;27.92;;;;;;;1.50;63.73;98631.81;4362645;32;34738;-91
2021/12/08 08:38:09;;;;;;;53.17;28.50;;;;;;;1.48;64.10;98630.91;4350084;32;33964;-89
2021/12/08 08:40:43;;;;;;;56.65;30.52;;;;;;;1.43;64.73;98630.69;4362563;32;33974;-90
2021/12/08 08:43:11;;;;;;;62.33;31.02;;;;;;;1.38;65.56;98627.09;4375713;32;33504;-89
2021/12/08 08:45:41;;;;;;;62.17;32.05;;;;;;;1.42;65.57;98628.09;4376169;32;33492;-90
2021/12/08 08:48:15;;;;;;;53.65;30.33;;;;;;;1.63;65.36;98631.50;4362270;32;32752;-89
2021/12/08 08:50:59;;;;;;;56.75;30.17;;;;;;;1.74;65.41;98625.91;4350970;32;34066;-87
2021/12/08 08:53:32;;;;;;;57.72;30.95;;;;;;;1.82;64.99;98635.63;4362378;32;33542;-87
2021/12/08 08:56:07;;;;;;;61.55;32.65;;;;;;;1.68;65.79;98629.13;4375902;32;33935;-87
2021/12/08 08:58:36;;;;;;;62.80;33.33;;;;;;;1.71;65.88;98631.78;4362124;32;34310;-90
2021/12/08 09:01:13;;;;;;;58.80;32.17;;;;;;;1.57;66.98;98631.25;4375699;32;33830;-87
2021/12/08 09:03:47;;;;;;;59.72;33.97;;;;;;;1.88;65.86;98628.19;4376026;32;33995;-90
2021/12/08 09:06:24;;;;;;;67.70;36.55;;;;;;;1.83;65.90;98616.06;4362159;32;33913;-90
2021/12/08 09:08:51;;;;;;;66.28;35.97;;;;;;;1.54;66.83;98607.25;4375693;32;34631;-90
2021/12/08 09:11:32;;;;;;;62.85;35.28;;;;;;;1.76;66.52;98609.84;4375574;32;34776;-90
2021/12/08 09:14:15;;;;;;;61.63;34.67;;;;;;;1.64;67.08;98607.69;4375583;32;34096;-88
2021/12/08 09:16:48;;;;;;;59.90;31.52;;;;;;;1.96;66.02;98618.25;4350000;32;33638;-89
2021/12/08 09:19:20;;;;;;;59.63;33.15;;;;;;;2.09;65.75;98610.25;4362087;32;34833;-90
2021/12/08 09:22:01;;;;;;;65.87;36.78;;;;;;;2.00;65.92;98607.31;4375877;32;33638;-90
2021/12/08 09:25:14;;;;;;;64.18;36.22;;;;;;;2.17;65.70;98610.53;4351759;32;33388;-89
2021/12/08 09:27:46;;;;;;;61.17;34.47;;;;;;;2.07;66.10;98611.84;4345172;32;33879;-90
2021/12/08 09:30:36;;;;;;;67.55;34.67;;;;;;;2.00;66.62;98617.56;4375846;32;33969;-90
2021/12/08 09:33:10;;;;;;;60.42;32.50;;;;;;;2.21;66.12;98604.72;4375672;32;33607;-91
2021/12/08 09:35:47;;;;;;;61.45;33.33;;;;;;;2.32;65.45;98600.84;4362379;32;33202;-90
2021/12/08 09:38:22;;;;;;;59.95;32.40;;;;;;;2.18;65.87;98599.47;4362173;32;33462;-90
2021/12/08 09:41:00;;;;;;;65.53;33.97;;;;;;;1.94;66.79;98587.53;4362172;32;34261;-88
2021/12/08 09:43:36;;;;;;;73.82;42.38;;;;;;;2.30;65.77;98589.69;4356411;32;173446;-90
2021/12/08 09:46:07;;;;;;;;;;;;;;;1.97;66.57;98598.66;4376059;32;34538;-89
2021/12/08 09:48:39;;;;;;;68.57;35.20;;;;;;;2.07;66.38;98593.09;4362027;32;34136;-90
2021/12/08 09:51:08;;;;;;;70.22;36.95;;;;;;;2.13;66.24;98594.19;4375580;32;34588;-90
2021/12/08 09:53:36;;;;;;;75.20;38.67;;;;;;;2.01;65.80;98582.63;4362006;32;34108;-90
2021/12/08 09:56:05;;;;;;;67.72;35.42;;;;;;;1.91;67.32;98579.75;4349255;32;33634;-90
2021/12/08 09:58:35;;;;;;;67.50;36.60;;;;;;;1.84;67.61;98585.44;4361933;32;33729;-89
2021/12/08 10:01:04;;;;;;;63.38;35.53;;;;;;;2.16;66.30;98584.09;4375490;32;35090;-89
2021/12/08 10:03:33;;;;;;;73.22;37.97;;;;;;;1.95;66.53;98584.16;4362208;32;34613;-92
2021/12/08 10:06:01;;;;;;;70.20;38.30;;;;;;;2.52;65.14;98570.84;4362373;32;33066;-88
2021/12/08 10:08:29;;;;;;;76.40;41.72;;;;;;;2.63;64.70;98568.66;4361732;32;33603;-90
2021/12/08 10:10:57;;;;;;;67.12;36.50;;;;;;;2.24;65.82;98566.47;4375427;32;35007;-89
2021/12/08 10:13:25;;;;;;;73.75;38.78;;;;;;;2.21;66.14;98570.59;4375548;32;33723;-90
2021/12/08 10:15:52;;;;;;;69.90;38.90;;;;;;;2.29;66.06;98564.94;4361620;32;34420;-89
2021/12/08 10:18:20;;;;;;;66.00;37.85;;;;;;;2.66;65.15;98555.97;4375472;32;35140;-87
2021/12/08 10:20:50;;;;;;;70.53;38.70;;;;;;;2.28;65.72;98552.97;4375392;32;33904;-90
2021/12/08 10:23:35;;;;;;;68.75;39.47;;;;;;;2.43;65.63;98562.88;4361689;32;33589;-91
2021/12/08 10:26:32;;;;;;;69.03;37.60;;;;;;;2.79;64.77;98554.69;4361935;32;34320;-90
2021/12/08 10:29:00;;;;;;;70.68;39.22;;;;;;;2.61;65.36;98553.28;4372764;32;33737;-90
2021/12/08 10:31:32;;;;;;;79.28;43.78;;;;;;;2.52;65.85;98545.25;4375394;32;33734;-88
2021/12/08 10:34:21;;;;;;;75.80;40.55;;;;;;;2.55;65.94;98544.50;4375602;32;34024;-88
2021/12/08 10:36:58;;;;;;;77.22;41.15;;;;;;;2.22;66.30;98542.50;4374604;32;33330;-87
2021/12/08 10:39:38;;;;;;;91.18;45.63;;;;;;;2.21;66.55;98542.47;4375067;32;34600;-89
2021/12/08 10:42:11;;;;;;;80.70;44.30;;;;;;;2.80;64.94;98525.72;4375082;32;34028;-87
2021/12/08 10:45:08;;;;;;;83.07;44.83;;;;;;;2.36;66.07;98525.97;4361892;32;33726;-88
2021/12/08 10:47:44;;;;;;;78.22;43.33;;;;;;;2.39;66.06;98526.06;4363427;32;33848;-89
2021/12/08 10:55:54;;;;;;;74.12;41.13;;;;;;;2.77;64.79;98517.97;4363378;32;33619;-87
2021/12/08 10:58:25;;;;;;;80.45;44.70;;;;;;;2.72;65.27;98510.09;4375028;32;33589;-87
2021/12/08 11:00:54;;;;;;;80.55;43.33;;;;;;;2.84;64.97;98505.41;4374890;32;33875;-89
2021/12/08 11:03:23;;;;;;;87.07;45.05;;;;;;;2.63;65.26;98509.81;4374795;32;33887;-87
2021/12/08 11:05:54;;;;;;;80.53;43.50;;;;;;;2.68;64.83;98508.25;4361554;32;34559;-88
2021/12/08 11:08:26;;;;;;;83.50;43.53;;;;;;;2.35;65.92;98508.88;4374637;32;33689;-89
2021/12/08 11:11:20;;;;;;;74.60;44.90;;;;;;;2.57;65.97;98500.22;4374915;32;34748;-89
2021/12/08 11:13:54;;;;;;;80.43;44.53;;;;;;;2.78;65.27;98499.22;4374649;32;34502;-87
2021/12/08 11:16:29;;;;;;;82.37;43.05;;;;;;;2.40;66.15;98498.81;4349143;32;33341;-87
2021/12/08 11:19:00;;;;;;;75.50;41.55;;;;;;;2.60;65.41;98502.03;4361111;32;33693;-87
2021/12/08 11:21:36;;;;;;;73.65;40.40;;;;;;;2.13;67.28;98496.16;4360842;32;34132;-89
2021/12/08 11:24:14;;;;;;;72.22;41.00;;;;;;;2.73;65.62;98495.59;4374420;32;35132;-89
2021/12/08 11:26:47;;;;;;;74.50;40.67;;;;;;;2.73;65.67;98493.94;4374440;32;33942;-88
2021/12/08 11:29:19;;;;;;;74.95;40.95;;;;;;;2.50;66.46;98487.16;4361276;32;34582;-89
2021/12/08 11:31:50;;;;;;;72.28;40.65;;;;;;;2.37;67.06;98489.31;4360689;32;32111;-88
2021/12/08 11:34:30;;;;;;;79.28;43.35;;;;;;;2.81;65.75;98495.06;4360976;32;34035;-88
2021/12/08 11:37:06;;;;;;;71.25;39.88;;;;;;;2.82;65.19;98494.22;4360946;32;34010;-88
2021/12/08 11:39:37;;;;;;;75.47;43.15;;;;;;;2.69;65.46;98489.56;4374386;32;33707;-88
2021/12/08 11:42:12;;;;;;;75.20;40.47;;;;;;;2.42;66.27;98486.91;4374390;32;34757;-87
2021/12/08 11:44:42;;;;;;;78.05;40.22;;;;;;;2.64;65.74;98486.81;4361277;32;35071;-88
2021/12/08 11:47:15;;;;;;;85.68;43.20;;;;;;;2.79;65.54;98489.00;4374625;32;33769;-87
2021/12/08 11:49:47;;;;;;;72.87;39.78;;;;;;;2.69;65.61;98479.31;4350048;32;32388;-88
2021/12/08 11:52:19;;;;;;;77.40;40.88;;;;;;;2.54;66.32;98483.91;4376243;32;33648;-87
2021/12/08 11:54:50;;;;;;;72.03;41.08;;;;;;;2.67;66.06;98475.81;4376320;32;35028;-87
2021/12/08 11:57:21;;;;;;;70.40;38.58;;;;;;;3.03;65.12;98482.94;4362919;32;33362;-88
2021/12/08 12:00:19;;;;;;;76.15;38.00;;;;;;;2.61;65.75;98479.06;4376305;32;33657;-88
2021/12/08 12:02:57;;;;;;;72.87;39.83;;;;;;;2.69;65.91;98481.88;4376326;32;34898;-88
2021/12/08 12:05:33;;;;;;;71.32;38.70;;;;;;;2.64;66.44;98475.72;4363675;32;34926;-88
2021/12/08 12:08:06;;;;;;;72.75;39.08;;;;;;;2.92;65.65;98473.25;4350389;32;33882;-89
2021/12/08 12:10:36;;;;;;;75.22;40.42;;;;;;;3.17;65.11;98476.53;4376094;32;33391;-87
2021/12/08 12:13:08;;;;;;;72.55;40.08;;;;;;;2.85;65.41;98466.19;4362604;32;33513;-89
2021/12/08 12:15:37;;;;;;;69.90;38.13;;;;;;;3.07;64.89;98465.16;4363083;32;34258;-88
2021/12/08 12:18:05;;;;;;;64.53;37.67;;;;;;;3.14;64.60;98463.63;4375931;32;34530;-88
2021/12/08 12:20:44;;;;;;;71.20;36.30;;;;;;;2.89;64.88;98456.91;4376401;32;33430;-89
2021/12/08 12:23:51;;;;;;;65.07;35.75;;;;;;;2.48;65.83;98458.12;4350501;32;34033;-88
2021/12/08 12:26:53;;;;;;;72.12;35.40;;;;;;;2.13;67.11;98453.56;4365706;32;34631;-87
2021/12/08 12:29:21;;;;;;;74.97;38.00;;;;;;;2.62;65.37;98462.00;4362819;32;33938;-88
2021/12/08 12:32:03;;;;;;;70.37;37.25;;;;;;;2.31;66.12;98465.22;4376202;32;33660;-88
2021/12/08 12:34:36;;;;;;;73.95;39.40;;;;;;;2.48;65.81;98458.12;4376169;32;34048;-89
2021/12/08 12:37:13;;;;;;;74.37;38.25;;;;;;;2.93;64.51;98449.38;4375874;32;35005;-88
2021/12/08 12:39:48;;;;;;;76.85;40.70;;;;;;;3.25;64.07;98454.59;4376008;32;34734;-87
2021/12/08 12:42:18;;;;;;;77.17;40.03;;;;;;;2.69;65.37;98456.28;4350101;32;33128;-88